Time;durP1;ratioP1;P1;durP2;ratioP2;P2;SDS_P1;SDS_P2;PMS_P1;PMS_P2;Temp;Humidity;BMP_temperature;BMP_pressure;BME280_temperature;BME280_humidity;BME280_pressure;Samples;Min_cycle;Max_cycle;Signal;HPM_P1;HPM_P2
2022/07/22 00:00:15;;;;;;;6.47;4.45;;;18.90;99.90;;;;;;5115408;28;20422;-72
2022/07/22 00:02:42;;;;;;;8.73;4.78;;;18.80;99.90;;;;;;5096988;28;20054;-72
2022/07/22 00:05:11;;;;;;;7.70;5.15;;;18.80;99.90;;;;;;5117426;28;20039;-71
2022/07/22 00:07:39;;;;;;;9.40;5.10;;;18.80;99.90;;;;;;5115944;28;20067;-72
2022/07/22 00:10:08;;;;;;;7.88;4.55;;;18.80;99.90;;;;;;5115133;28;20043;-72
2022/07/22 00:12:36;;;;;;;7.82;4.90;;;18.80;99.90;;;;;;5114854;28;20043;-72
2022/07/22 00:15:04;;;;;;;12.30;5.15;;;18.70;99.90;;;;;;5097087;28;20047;-71
2022/07/22 00:17:32;;;;;;;8.50;4.78;;;18.60;99.90;;;;;;5115335;28;20039;-71
2022/07/22 00:19:59;;;;;;;18.50;5.57;;;18.60;99.90;;;;;;5115075;28;20092;-72
2022/07/22 00:22:28;;;;;;;11.40;5.07;;;18.60;99.90;;;;;;5114801;28;20085;-71
2022/07/22 00:24:55;;;;;;;11.15;5.20;;;18.60;99.90;;;;;;5114838;28;20082;-72
2022/07/22 00:27:22;;;;;;;10.63;4.90;;;18.60;99.90;;;;;;5096525;28;20490;-72
2022/07/22 00:29:50;;;;;;;7.30;4.50;;;18.50;99.90;;;;;;5096429;28;20047;-72
2022/07/22 00:32:17;;;;;;;9.35;4.45;;;18.50;99.90;;;;;;5096495;28;20040;-73
2022/07/22 00:34:44;;;;;;;7.80;4.60;;;18.50;99.90;;;;;;5096107;28;20039;-72
2022/07/22 00:37:12;;;;;;;6.80;4.00;;;18.50;99.90;;;;;;5114649;28;20085;-72
2022/07/22 00:39:40;;;;;;;7.32;4.35;;;18.40;99.90;;;;;;5114683;28;20403;-73
2022/07/22 00:42:08;;;;;;;7.55;4.22;;;18.40;99.90;;;;;;5096274;28;20048;-72
2022/07/22 00:44:35;;;;;;;11.50;4.80;;;18.30;99.90;;;;;;5114455;28;20523;-72
2022/07/22 00:47:02;;;;;;;7.82;5.00;;;18.30;99.90;;;;;;5096676;28;20084;-72
2022/07/22 00:49:29;;;;;;;6.75;4.50;;;18.30;99.90;;;;;;5114325;28;20040;-72
2022/07/22 00:51:57;;;;;;;8.77;5.13;;;18.30;99.90;;;;;;5114588;28;20116;-71
2022/07/22 00:54:24;;;;;;;9.07;4.32;;;18.30;99.90;;;;;;5114112;28;20040;-72
2022/07/22 00:56:53;;;;;;;8.15;4.78;;;18.20;99.90;;;;;;5096109;28;20112;-72
2022/07/22 00:59:20;;;;;;;11.48;4.60;;;18.10;99.90;;;;;;5114331;28;20398;-72
2022/07/22 01:01:48;;;;;;;14.27;5.47;;;18.00;99.90;;;;;;5096233;28;20096;-72
2022/07/22 01:04:15;;;;;;;9.20;4.80;;;17.90;99.90;;;;;;5113718;28;20035;-71
2022/07/22 01:06:44;;;;;;;7.07;4.75;;;17.90;99.90;;;;;;5114429;28;20060;-72
2022/07/22 01:09:12;;;;;;;6.57;4.57;;;18.00;99.90;;;;;;5113359;28;20051;-73
2022/07/22 01:11:40;;;;;;;6.63;4.88;;;18.00;99.90;;;;;;5114032;28;20046;-73
2022/07/22 01:14:09;;;;;;;9.82;4.75;;;18.00;99.90;;;;;;5113841;28;20394;-72
2022/07/22 01:16:37;;;;;;;9.88;4.78;;;18.00;99.90;;;;;;5095377;28;20101;-71
2022/07/22 01:19:04;;;;;;;12.52;5.82;;;18.00;99.90;;;;;;5113726;28;20056;-73
2022/07/22 01:21:33;;;;;;;7.85;4.47;;;17.90;99.90;;;;;;5095547;28;20047;-73
2022/07/22 01:24:01;;;;;;;5.93;4.50;;;17.90;99.90;;;;;;5095534;28;20453;-72
2022/07/22 01:26:28;;;;;;;7.45;5.30;;;17.80;99.90;;;;;;5095501;28;20047;-74
2022/07/22 01:28:56;;;;;;;7.75;4.78;;;17.80;99.90;;;;;;5114156;28;20054;-72
2022/07/22 01:31:23;;;;;;;8.05;4.85;;;17.70;99.90;;;;;;5095241;28;20472;-72
2022/07/22 01:33:50;;;;;;;7.75;4.88;;;17.70;99.90;;;;;;5113401;28;20363;-72
2022/07/22 01:36:18;;;;;;;7.93;4.88;;;17.70;99.90;;;;;;5095360;28;20058;-72
2022/07/22 01:38:47;;;;;;;10.70;5.22;;;17.70;99.90;;;;;;5095694;28;20131;-72
2022/07/22 01:41:15;;;;;;;7.10;4.65;;;17.60;99.90;;;;;;5095325;28;20101;-72
2022/07/22 01:43:42;;;;;;;6.30;4.50;;;17.70;99.90;;;;;;5094841;28;20054;-72
2022/07/22 01:46:10;;;;;;;10.75;5.03;;;17.70;99.90;;;;;;5113626;28;20051;-72
2022/07/22 01:48:41;;;;;;;8.02;4.78;;;17.70;99.90;;;;;;5095632;28;20494;-73
2022/07/22 01:51:08;;;;;;;8.27;4.18;;;17.70;99.90;;;;;;5113293;28;20410;-72
2022/07/22 01:53:38;;;;;;;7.82;4.90;;;17.60;99.90;;;;;;5095050;28;20407;-72
2022/07/22 01:56:08;;;;;;;8.30;5.10;;;17.60;99.90;;;;;;5113580;28;20061;-72
2022/07/22 01:58:40;;;;;;;7.85;4.57;;;17.60;99.90;;;;;;5096282;28;20432;-72
2022/07/22 02:01:09;;;;;;;7.30;4.90;;;17.60;99.90;;;;;;5095187;28;20040;-72
2022/07/22 02:03:37;;;;;;;6.88;4.80;;;17.50;99.90;;;;;;5094919;28;20043;-72
2022/07/22 02:06:06;;;;;;;10.20;5.15;;;17.50;99.90;;;;;;5095352;28;20096;-72
2022/07/22 02:08:34;;;;;;;9.27;5.00;;;17.50;99.90;;;;;;5095408;28;20047;-72
2022/07/22 02:11:23;;;;;;;6.50;4.80;;;17.50;99.90;;;;;;5095224;28;20067;-72
2022/07/22 02:13:55;;;;;;;6.35;4.72;;;17.50;99.90;;;;;;5095123;28;20048;-72
2022/07/22 02:16:22;;;;;;;7.90;5.53;;;17.50;99.90;;;;;;5098753;28;20047;-72
2022/07/22 02:18:52;;;;;;;9.50;5.38;;;17.50;99.90;;;;;;5104066;28;20111;-72
2022/07/22 02:21:20;;;;;;;8.43;5.00;;;17.40;99.90;;;;;;5103730;28;20051;-73
2022/07/22 02:23:47;;;;;;;7.55;4.70;;;17.50;99.90;;;;;;5098879;28;20131;-73
2022/07/22 02:26:14;;;;;;;6.95;4.88;;;17.30;99.90;;;;;;5099027;28;20078;-73
2022/07/22 02:28:43;;;;;;;7.05;4.65;;;17.30;99.90;;;;;;5098794;28;20089;-72
2022/07/22 02:31:11;;;;;;;7.43;4.97;;;17.30;99.90;;;;;;5098658;28;20039;-72
2022/07/22 02:33:39;;;;;;;12.25;4.97;;;17.30;99.90;;;;;;5098337;28;20131;-72
2022/07/22 02:36:07;;;;;;;10.18;4.88;;;17.20;99.90;;;;;;5098953;28;20066;-72
2022/07/22 02:38:36;;;;;;;6.95;5.20;;;17.20;99.90;;;;;;5099375;28;20409;-72
2022/07/22 02:41:03;;;;;;;10.93;5.07;;;17.20;99.90;;;;;;5116675;28;20118;-72
2022/07/22 02:43:32;;;;;;;12.38;5.07;;;17.20;99.90;;;;;;5098246;28;20452;-72
2022/07/22 02:46:01;;;;;;;6.82;4.90;;;17.10;99.90;;;;;;5098511;28;20047;-72
2022/07/22 02:48:28;;;;;;;6.75;5.10;;;17.10;99.90;;;;;;5098240;28;20057;-72
2022/07/22 02:50:56;;;;;;;11.07;5.57;;;17.10;99.90;;;;;;5098121;28;20056;-72
2022/07/22 02:53:28;;;;;;;9.60;5.30;;;17.00;99.90;;;;;;5098737;28;20054;-72
2022/07/22 02:56:00;;;;;;;7.70;5.45;;;17.00;99.90;;;;;;5098245;28;20047;-72
2022/07/22 02:58:28;;;;;;;8.50;5.60;;;17.00;99.90;;;;;;5098270;28;20043;-72
2022/07/22 03:00:56;;;;;;;9.52;5.03;;;17.00;99.90;;;;;;5097881;28;20051;-72
2022/07/22 03:03:26;;;;;;;7.70;5.18;;;17.00;99.90;;;;;;5098113;28;20114;-72
2022/07/22 03:05:54;;;;;;;10.07;5.22;;;16.90;99.90;;;;;;5098409;28;20058;-72
2022/07/22 03:08:38;;;;;;;5.88;5.00;;;16.80;99.90;;;;;;5098238;28;20498;-72
2022/07/22 03:11:06;;;;;;;11.07;5.47;;;16.80;99.90;;;;;;5098013;28;20062;-72
2022/07/22 03:13:33;;;;;;;10.23;5.88;;;16.80;99.90;;;;;;5097441;28;20054;-72
2022/07/22 03:16:01;;;;;;;9.00;5.65;;;16.80;99.90;;;;;;5097888;28;20138;-72
2022/07/22 03:18:30;;;;;;;10.35;5.28;;;16.80;99.90;;;;;;5097814;28;20051;-72
2022/07/22 03:20:57;;;;;;;8.95;5.00;;;16.70;99.90;;;;;;5097730;28;20052;-72
2022/07/22 03:23:25;;;;;;;9.00;5.18;;;16.70;99.90;;;;;;5097449;28;20043;-72
2022/07/22 03:25:52;;;;;;;10.63;5.70;;;16.70;99.90;;;;;;5097532;28;20052;-72
2022/07/22 03:28:19;;;;;;;96.45;14.23;;;16.70;99.90;;;;;;5097673;28;20100;-72
2022/07/22 03:30:47;;;;;;;9.02;5.78;;;16.70;99.90;;;;;;5115778;28;20047;-72
2022/07/22 03:33:18;;;;;;;10.75;5.32;;;16.80;99.90;;;;;;5115046;28;20051;-72
2022/07/22 03:35:47;;;;;;;9.18;5.53;;;16.80;99.90;;;;;;5115758;28;20402;-72
2022/07/22 03:38:15;;;;;;;10.32;5.80;;;16.80;99.90;;;;;;5097530;28;20047;-72
2022/07/22 03:40:43;;;;;;;8.15;5.80;;;16.90;99.90;;;;;;5097309;28;20051;-72
2022/07/22 03:43:11;;;;;;;11.88;6.00;;;16.90;99.90;;;;;;5096961;28;20494;-72
2022/07/22 03:45:39;;;;;;;9.60;5.97;;;16.80;99.90;;;;;;5115693;28;20044;-72
2022/07/22 03:48:09;;;;;;;11.38;6.72;;;16.80;99.90;;;;;;5097411;28;20410;-72
2022/07/22 03:50:39;;;;;;;21.90;7.22;;;16.90;99.90;;;;;;5098280;28;20058;-72
2022/07/22 03:53:08;;;;;;;9.27;6.30;;;16.90;99.90;;;;;;5097638;28;20071;-71
2022/07/22 03:55:39;;;;;;;9.77;7.00;;;16.90;99.90;;;;;;5098048;28;20391;-72
2022/07/22 03:58:07;;;;;;;13.77;8.77;;;17.00;99.90;;;;;;5097087;28;20044;-72
2022/07/22 04:00:34;;;;;;;17.45;9.38;;;17.30;99.90;;;;;;5096971;28;20054;-72
2022/07/22 04:03:04;;;;;;;12.95;9.85;;;17.80;99.90;;;;;;5096885;28;20051;-72
2022/07/22 04:06:10;;;;;;;13.30;9.30;;;18.30;99.90;;;;;;5102489;28;20055;-72
2022/07/22 04:08:56;;;;;;;13.30;9.02;;;19.00;99.90;;;;;;5096666;28;20039;-72
2022/07/22 04:11:23;;;;;;;12.20;7.82;;;19.50;99.90;;;;;;5096953;28;20044;-72
2022/07/22 04:13:51;;;;;;;12.00;7.38;;;19.90;99.90;;;;;;5114635;28;20527;-72
2022/07/22 04:16:19;;;;;;;11.45;6.15;;;20.20;99.90;;;;;;5096799;28;20054;-72
2022/07/22 04:18:56;;;;;;;8.35;5.35;;;20.70;99.90;;;;;;5096865;28;20054;-72
2022/07/22 04:21:40;;;;;;;10.90;6.20;;;21.00;99.90;;;;;;5097297;28;20052;-72
2022/07/22 04:24:12;;;;;;;12.13;6.07;;;21.40;99.90;;;;;;5096910;28;20039;-73
2022/07/22 04:26:39;;;;;;;12.27;6.70;;;22.10;99.90;;;;;;5096723;28;20117;-72
2022/07/22 04:29:07;;;;;;;10.32;5.53;;;22.20;99.90;;;;;;5096662;28;20043;-72
2022/07/22 04:31:35;;;;;;;13.40;6.15;;;22.70;99.90;;;;;;5096484;28;20047;-72
2022/07/22 04:34:07;;;;;;;9.65;5.63;;;23.20;99.90;;;;;;5096229;28;20040;-72
2022/07/22 04:36:34;;;;;;;10.95;5.28;;;23.70;99.90;;;;;;5096195;28;20058;-73
2022/07/22 04:39:02;;;;;;;11.15;5.00;;;23.80;99.90;;;;;;5096258;28;20050;-72
2022/07/22 04:41:31;;;;;;;11.90;5.65;;;23.90;99.90;;;;;;5096069;28;20039;-72
2022/07/22 04:44:00;;;;;;;12.52;5.85;;;24.30;99.90;;;;;;5096047;28;20036;-72
2022/07/22 04:46:30;;;;;;;10.45;5.32;;;24.30;99.90;;;;;;5095867;28;20047;-72
2022/07/22 04:48:58;;;;;;;15.40;5.40;;;24.10;99.90;;;;;;5096056;28;20510;-73
2022/07/22 04:51:25;;;;;;;11.40;5.35;;;24.30;99.90;;;;;;5113997;28;20469;-72
2022/07/22 04:54:00;;;;;;;13.77;6.57;;;24.80;99.90;;;;;;5095733;28;20085;-72
2022/07/22 04:56:28;;;;;;;12.98;6.78;;;25.40;99.90;;;;;;5095632;28;20529;-72
2022/07/22 04:58:57;;;;;;;12.82;5.70;;;25.80;99.90;;;;;;5095709;28;20541;-72
2022/07/22 05:01:30;;;;;;;17.48;7.13;;;25.60;99.90;;;;;;5095722;28;20097;-72
2022/07/22 05:03:57;;;;;;;15.60;7.22;;;25.80;99.90;;;;;;5095499;28;20515;-72
2022/07/22 05:06:25;;;;;;;18.88;7.68;;;25.30;99.90;;;;;;5095544;28;20074;-72
2022/07/22 05:08:55;;;;;;;15.13;10.32;;;24.50;99.90;;;;;;5095860;28;20043;-72
2022/07/22 05:11:22;;;;;;;13.65;6.95;;;24.20;99.90;;;;;;5095357;28;20059;-73
2022/07/22 05:13:50;;;;;;;10.30;6.60;;;24.50;99.90;;;;;;5094981;28;20567;-72
2022/07/22 05:16:19;;;;;;;15.27;7.70;;;25.40;99.90;;;;;;5095304;28;20574;-73
2022/07/22 05:18:47;;;;;;;12.38;6.05;;;26.10;99.90;;;;;;5095718;28;20387;-73
2022/07/22 05:21:16;;;;;;;14.23;8.52;;;26.70;99.90;;;;;;5095294;28;20039;-72
2022/07/22 05:23:45;;;;;;;16.02;8.05;;;27.40;99.90;;;;;;5095522;28;20044;-72
2022/07/22 05:26:15;;;;;;;12.57;7.55;;;27.30;99.90;;;;;;5095351;28;20455;-72
2022/07/22 05:28:42;;;;;;;39.70;18.98;;;27.50;99.90;;;;;;5113616;28;20047;-73
2022/07/22 05:31:09;;;;;;;11.75;6.60;;;28.10;99.90;;;;;;5095301;28;20093;-71
2022/07/22 05:33:40;;;;;;;10.23;5.85;;;28.20;99.90;;;;;;5095325;28;20047;-72
2022/07/22 05:36:27;;;;;;;13.30;5.97;;;28.70;99.90;;;;;;5113123;28;20048;-71
2022/07/22 05:38:56;;;;;;;14.98;7.28;;;29.20;99.90;;;;;;5097072;28;20524;-73
2022/07/22 05:41:24;;;;;;;15.32;8.55;;;29.30;99.70;;;;;;5094800;28;20055;-73
2022/07/22 05:43:52;;;;;;;12.73;7.05;;;29.30;99.20;;;;;;5095210;28;20062;-73
2022/07/22 05:46:19;;;;;;;18.25;8.48;;;29.40;98.70;;;;;;5094824;28;20093;-73
2022/07/22 05:48:50;;;;;;;13.50;8.38;;;29.50;97.40;;;;;;5095243;28;20055;-73
2022/07/22 05:51:17;;;;;;;11.43;7.38;;;29.30;96.50;;;;;;5091532;28;20086;-73
2022/07/22 05:53:46;;;;;;;22.08;7.97;;;29.20;96.00;;;;;;5091495;28;20055;-73
2022/07/22 05:56:14;;;;;;;142.57;26.77;;;28.90;96.40;;;;;;5093530;28;20090;-73
2022/07/22 05:58:42;;;;;;;30.38;14.60;;;28.70;97.30;;;;;;5097042;28;20044;-73
2022/07/22 06:01:10;;;;;;;21.48;9.90;;;28.40;97.50;;;;;;5095461;28;20560;-73
2022/07/22 06:03:37;;;;;;;44.40;17.55;;;28.30;97.30;;;;;;5095440;28;20051;-73
2022/07/22 06:06:08;;;;;;;44.05;16.15;;;28.40;97.30;;;;;;5095518;28;20040;-73
2022/07/22 06:08:37;;;;;;;21.77;10.80;;;28.20;97.10;;;;;;5095303;28;20055;-73
2022/07/22 06:11:05;;;;;;;23.70;10.02;;;28.10;96.90;;;;;;5099340;28;20097;-72
2022/07/22 06:13:32;;;;;;;19.55;7.80;;;28.00;97.00;;;;;;5116641;28;20044;-73
2022/07/22 06:16:00;;;;;;;18.48;7.97;;;27.80;97.30;;;;;;5103287;28;20043;-72
2022/07/22 06:18:28;;;;;;;18.50;7.57;;;27.50;97.90;;;;;;5095736;28;20588;-72
2022/07/22 06:20:56;;;;;;;26.35;10.52;;;27.50;98.60;;;;;;5096974;28;20128;-72
2022/07/22 06:23:26;;;;;;;20.25;7.93;;;27.90;98.10;;;;;;5095552;28;20499;-72
2022/07/22 06:25:53;;;;;;;21.27;8.70;;;28.20;96.80;;;;;;5095148;28;20048;-72
2022/07/22 06:28:33;;;;;;;34.05;9.98;;;28.40;95.80;;;;;;5095074;28;20105;-72
2022/07/22 06:31:00;;;;;;;20.25;10.27;;;28.60;95.10;;;;;;5094794;28;20044;-72
2022/07/22 06:33:29;;;;;;;20.10;8.50;;;28.90;94.60;;;;;;5094840;28;20037;-73
2022/07/22 06:35:57;;;;;;;43.33;11.45;;;28.90;93.40;;;;;;5094921;28;20071;-73
2022/07/22 06:38:28;;;;;;;15.20;8.40;;;28.80;93.50;;;;;;5094758;28;20048;-73
2022/07/22 06:41:18;;;;;;;20.33;8.70;;;28.90;93.40;;;;;;5096516;28;20058;-73
2022/07/22 06:44:04;;;;;;;18.65;8.60;;;29.10;92.60;;;;;;5096734;28;20059;-73
2022/07/22 06:46:46;;;;;;;23.17;9.02;;;29.20;92.40;;;;;;5096690;28;20119;-73
2022/07/22 06:49:14;;;;;;;16.45;7.63;;;29.10;92.50;;;;;;5095377;28;20048;-72
2022/07/22 06:51:42;;;;;;;22.60;8.30;;;28.90;92.40;;;;;;5095028;28;20520;-73
2022/07/22 06:54:11;;;;;;;20.08;7.57;;;28.90;92.50;;;;;;5094631;28;20044;-73
2022/07/22 06:56:39;;;;;;;18.48;9.25;;;29.00;92.10;;;;;;5096365;28;20040;-73
2022/07/22 06:59:07;;;;;;;18.80;8.35;;;28.90;92.20;;;;;;5095874;28;20048;-72
2022/07/22 07:01:34;;;;;;;14.57;9.48;;;28.80;92.20;;;;;;5106541;28;20055;-72
2022/07/22 07:04:02;;;;;;;20.67;11.73;;;29.10;92.00;;;;;;5115463;28;20051;-71
2022/07/22 07:06:30;;;;;;;20.45;8.60;;;29.30;91.60;;;;;;5119233;28;20048;-73
2022/07/22 07:09:07;;;;;;;22.85;12.73;;;29.20;91.30;;;;;;5118265;28;20036;-73
2022/07/22 07:11:37;;;;;;;19.85;9.65;;;29.00;91.60;;;;;;5099750;28;20390;-73
2022/07/22 07:14:12;;;;;;;21.25;9.05;;;29.30;91.60;;;;;;5094524;28;20218;-73
2022/07/22 07:16:40;;;;;;;21.85;7.97;;;29.40;91.20;;;;;;5094773;28;20048;-73
2022/07/22 07:19:07;;;;;;;17.42;8.45;;;29.40;90.20;;;;;;5094604;28;20139;-73
2022/07/22 07:21:35;;;;;;;15.23;7.75;;;29.60;90.00;;;;;;5094385;28;20143;-73
2022/07/22 07:24:02;;;;;;;15.70;6.90;;;29.90;89.10;;;;;;5094042;28;20047;-73
2022/07/22 07:26:29;;;;;;;11.13;7.38;;;29.70;88.50;;;;;;5094366;28;20055;-72
2022/07/22 07:28:58;;;;;;;22.60;7.25;;;29.80;89.00;;;;;;5094529;28;20052;-72
2022/07/22 07:31:32;;;;;;;18.93;7.37;;;29.80;89.40;;;;;;5094590;28;20056;-73
2022/07/22 07:34:02;;;;;;;17.75;8.20;;;30.30;88.60;;;;;;5093956;28;20055;-73
2022/07/22 07:36:30;;;;;;;14.77;6.60;;;30.60;86.80;;;;;;5094213;28;20036;-73
2022/07/22 07:38:57;;;;;;;15.90;8.30;;;30.90;85.20;;;;;;5095397;28;20059;-73
2022/07/22 07:41:25;;;;;;;11.82;7.80;;;30.70;84.40;;;;;;5093728;28;20571;-73
2022/07/22 07:43:53;;;;;;;21.73;7.55;;;30.80;83.00;;;;;;5093851;28;20444;-72
2022/07/22 07:46:22;;;;;;;16.75;7.70;;;30.80;82.80;;;;;;5093636;28;20048;-73
2022/07/22 07:48:51;;;;;;;16.85;7.50;;;30.70;82.90;;;;;;5094112;28;20059;-73
2022/07/22 07:51:18;;;;;;;16.75;7.15;;;30.80;82.40;;;;;;5093466;28;20135;-73
2022/07/22 07:53:46;;;;;;;19.15;8.02;;;31.00;81.90;;;;;;5093718;28;20071;-73
2022/07/22 07:56:13;;;;;;;12.52;7.05;;;31.20;81.30;;;;;;5094987;28;20513;-73
2022/07/22 07:58:41;;;;;;;12.73;6.25;;;31.20;80.30;;;;;;5093571;28;20138;-73
2022/07/22 08:01:09;;;;;;;9.32;6.63;;;31.40;79.60;;;;;;5095257;28;20091;-73
2022/07/22 08:03:38;;;;;;;15.20;7.60;;;31.30;78.30;;;;;;5093282;28;20048;-72
2022/07/22 08:06:07;;;;;;;13.40;6.93;;;31.20;78.20;;;;;;5093559;28;20134;-73
2022/07/22 08:08:34;;;;;;;12.45;7.25;;;31.30;78.00;;;;;;5094639;28;20419;-72
2022/07/22 08:11:14;;;;;;;14.82;7.15;;;31.50;77.70;;;;;;5092781;28;20048;-73
2022/07/22 08:13:59;;;;;;;;;;;31.70;77.00;;;;;;5095044;28;20059;-73
2022/07/22 08:16:44;;;;;;;19.00;7.35;;;31.90;76.10;;;;;;5093155;28;19920;-73
2022/07/22 08:19:13;;;;;;;15.98;8.20;;;32.00;75.80;;;;;;5093016;28;20047;-73
2022/07/22 08:21:42;;;;;;;16.48;8.40;;;32.20;75.80;;;;;;5094373;28;20052;-74
2022/07/22 08:24:26;;;;;;;18.25;9.52;;;32.30;75.20;;;;;;5093312;28;20064;-73
2022/07/22 08:26:53;;;;;;;19.95;7.88;;;32.30;75.00;;;;;;5092902;28;20067;-74
2022/07/22 08:29:21;;;;;;;17.55;7.93;;;32.20;75.60;;;;;;5093592;28;20074;-73
2022/07/22 08:31:48;;;;;;;12.43;7.15;;;32.20;74.60;;;;;;5092710;28;20055;-73
2022/07/22 08:34:19;;;;;;;21.20;7.80;;;32.40;74.10;;;;;;5092751;28;20056;-73
2022/07/22 08:36:46;;;;;;;14.57;6.03;;;32.40;73.20;;;;;;5092947;28;20048;-73
2022/07/22 08:39:15;;;;;;;13.95;6.00;;;32.40;71.80;;;;;;5092985;28;20131;-73
2022/07/22 08:41:42;;;;;;;14.45;6.38;;;32.50;70.60;;;;;;5093391;28;20131;-73
2022/07/22 08:44:11;;;;;;;11.70;6.10;;;32.60;68.60;;;;;;5092841;28;20044;-73
2022/07/22 08:46:39;;;;;;;12.15;6.03;;;32.70;67.10;;;;;;5092568;28;20070;-74
2022/07/22 08:49:22;;;;;;;12.80;6.47;;;32.90;67.60;;;;;;5093833;28;20043;-73
2022/07/22 08:52:13;;;;;;;14.63;6.22;;;32.80;68.00;;;;;;5093828;28;20051;-74
2022/07/22 08:54:44;;;;;;;14.48;6.63;;;32.70;67.10;;;;;;5092694;28;20063;-73
2022/07/22 08:57:13;;;;;;;15.60;6.10;;;32.80;67.10;;;;;;5092640;28;20040;-73
2022/07/22 08:59:51;;;;;;;17.02;7.38;;;32.80;67.40;;;;;;5092315;28;20503;-75
2022/07/22 09:02:20;;;;;;;15.45;7.05;;;33.10;67.50;;;;;;5092679;28;20079;-73
2022/07/22 09:04:54;;;;;;;8.80;6.20;;;33.00;67.00;;;;;;5092357;28;20050;-73
2022/07/22 09:07:30;;;;;;;11.97;6.77;;;33.10;66.40;;;;;;5093826;28;20063;-75
2022/07/22 09:10:03;;;;;;;11.80;6.82;;;33.20;66.00;;;;;;5092338;28;20044;-74
2022/07/22 09:12:59;;;;;;;13.10;6.75;;;33.20;65.10;;;;;;5069401;28;20437;-74
2022/07/22 09:15:49;;;;;;;10.82;6.00;;;33.50;63.40;;;;;;5099911;28;20047;-74
2022/07/22 09:18:47;;;;;;;13.80;5.45;;;33.50;61.40;;;;;;5097422;28;20050;-74
2022/07/22 09:21:36;;;;;;;10.52;5.60;;;33.70;60.70;;;;;;5093407;28;20066;-73
2022/07/22 09:24:31;;;;;;;12.88;6.43;;;33.90;60.60;;;;;;5090939;28;20059;-74
2022/07/22 09:27:25;;;;;;;9.10;5.28;;;34.00;59.50;;;;;;5092178;28;20131;-74
2022/07/22 09:30:14;;;;;;;13.73;7.82;;;34.10;58.90;;;;;;5092922;28;20475;-73
2022/07/22 09:32:49;;;;;;;13.82;8.65;;;34.30;58.70;;;;;;5092106;28;20048;-74
2022/07/22 09:35:24;;;;;;;8.77;7.03;;;34.30;57.70;;;;;;5092495;28;20071;-74
2022/07/22 09:37:58;;;;;;;9.35;5.75;;;34.30;57.30;;;;;;5092012;28;20134;-74
2022/07/22 09:40:27;;;;;;;12.85;7.53;;;34.30;56.90;;;;;;5091406;28;20135;-73
2022/07/22 09:42:56;;;;;;;11.20;5.70;;;34.30;57.10;;;;;;5092069;28;20043;-73
2022/07/22 09:45:25;;;;;;;13.68;6.82;;;34.40;56.30;;;;;;5091755;28;20058;-74
2022/07/22 09:47:54;;;;;;;10.82;7.90;;;34.40;55.70;;;;;;5093736;28;20050;-74
2022/07/22 09:50:29;;;;;;;12.85;7.55;;;34.60;55.80;;;;;;5110294;22;20044;-77
2022/07/22 09:53:34;;;;;;;7.63;4.90;;;34.60;55.00;;;;;;5084069;28;20147;-79
2022/07/22 09:56:09;;;;;;;9.85;4.70;;;34.50;53.90;;;;;;5095478;28;20040;-78
2022/07/22 09:58:37;;;;;;;13.15;4.90;;;34.40;54.20;;;;;;5096145;28;20548;-79
2022/07/22 10:01:11;;;;;;;17.08;6.25;;;34.30;53.20;;;;;;5097584;28;20044;-78
2022/07/22 10:03:40;;;;;;;10.25;5.05;;;34.20;53.50;;;;;;5095955;28;20044;-79
2022/07/22 10:06:09;;;;;;;12.88;6.22;;;34.20;52.20;;;;;;5106729;28;20063;-79
2022/07/22 10:08:40;;;;;;;14.55;6.18;;;34.30;54.30;;;;;;5114352;28;20036;-79
2022/07/22 10:11:09;;;;;;;13.57;6.45;;;34.60;53.70;;;;;;5100158;28;20048;-78
2022/07/22 10:13:40;;;;;;;16.88;6.57;;;34.70;53.30;;;;;;5098856;28;20036;-78
2022/07/22 10:16:10;;;;;;;10.43;6.00;;;34.90;52.30;;;;;;5095461;28;20457;-78
2022/07/22 10:18:38;;;;;;;12.43;5.93;;;34.90;51.90;;;;;;5096843;28;20044;-78
2022/07/22 10:21:07;;;;;;;20.15;12.55;;;34.70;52.10;;;;;;5096035;28;20044;-78
2022/07/22 10:23:35;;;;;;;15.38;6.95;;;34.80;52.80;;;;;;5096709;28;20091;-78
2022/07/22 10:26:05;;;;;;;10.70;6.70;;;34.90;53.20;;;;;;5096057;28;20111;-78
2022/07/22 10:28:34;;;;;;;9.00;5.70;;;34.90;53.90;;;;;;5096541;28;20044;-78
2022/07/22 10:31:23;;;;;;;24.08;14.38;;;34.90;53.90;;;;;;5097080;28;20116;-77
2022/07/22 10:33:52;;;;;;;10.05;6.00;;;34.90;54.10;;;;;;5096672;28;20429;-77
2022/07/22 10:36:34;;;;;;;17.52;8.70;;;34.90;53.90;;;;;;5096997;28;20116;-78
2022/07/22 10:39:07;;;;;;;11.73;6.10;;;34.90;53.80;;;;;;5095750;28;20113;-79
2022/07/22 10:41:37;;;;;;;22.20;8.20;;;34.90;54.40;;;;;;5096857;28;20036;-78
2022/07/22 10:44:05;;;;;;;14.38;7.18;;;35.10;54.60;;;;;;5100366;28;20086;-79
2022/07/22 10:46:50;;;;;;;13.77;6.72;;;35.40;54.50;;;;;;5100245;28;20456;-78
2022/07/22 10:49:19;;;;;;;16.98;9.60;;;35.40;53.90;;;;;;5100526;28;20048;-79
2022/07/22 10:52:11;;;;;;;12.60;5.88;;;35.50;53.70;;;;;;5100820;28;20052;-80
2022/07/22 10:55:16;;;;;;;15.38;7.80;;;35.60;53.00;;;;;;5102351;28;20066;-77
2022/07/22 10:57:45;;;;;;;16.75;6.13;;;35.60;52.50;;;;;;5100866;28;20067;-78
2022/07/22 11:00:13;;;;;;;12.63;6.70;;;35.60;52.50;;;;;;5100835;28;20154;-79
2022/07/22 11:02:40;;;;;;;14.20;6.13;;;35.60;52.40;;;;;;5098626;28;20043;-78
2022/07/22 11:05:09;;;;;;;11.98;6.35;;;35.70;52.30;;;;;;5099762;28;20048;-78
2022/07/22 11:07:42;;;;;;;13.23;5.93;;;35.70;52.20;;;;;;5098041;28;20131;-78
2022/07/22 11:10:11;;;;;;;12.68;6.60;;;35.60;52.10;;;;;;5099695;28;20044;-80
2022/07/22 11:12:39;;;;;;;11.75;7.57;;;35.70;52.40;;;;;;5098155;28;20058;-78
2022/07/22 11:15:09;;;;;;;18.10;9.95;;;35.80;52.00;;;;;;5098800;28;20055;-78
2022/07/22 11:17:38;;;;;;;16.52;8.73;;;35.90;51.80;;;;;;5099586;28;20066;-78
2022/07/22 11:20:07;;;;;;;11.80;5.63;;;35.90;51.50;;;;;;5100031;28;20560;-77
2022/07/22 11:22:34;;;;;;;10.55;5.80;;;35.90;51.30;;;;;;5098822;28;20048;-77
2022/07/22 11:25:04;;;;;;;14.65;8.18;;;35.80;51.00;;;;;;5099983;28;20426;-77
2022/07/22 11:27:32;;;;;;;15.93;5.97;;;35.60;51.60;;;;;;5105824;28;20044;-77
2022/07/22 11:29:59;;;;;;;15.90;7.78;;;35.50;51.70;;;;;;5101190;28;20052;-77
2022/07/22 11:32:31;;;;;;;13.77;6.13;;;35.70;51.80;;;;;;5098934;28;20075;-78
2022/07/22 11:34:59;;;;;;;10.27;5.95;;;35.70;51.70;;;;;;5098855;28;20492;-78
2022/07/22 11:37:28;;;;;;;15.32;7.13;;;35.60;51.30;;;;;;5100486;28;20090;-78
2022/07/22 11:40:01;;;;;;;12.20;6.53;;;35.90;50.90;;;;;;5098718;28;20052;-78
2022/07/22 11:42:28;;;;;;;16.70;6.10;;;36.00;49.30;;;;;;5100012;28;20051;-77
2022/07/22 11:44:56;;;;;;;13.50;5.97;;;35.90;48.90;;;;;;5098230;28;20048;-79
2022/07/22 11:47:23;;;;;;;11.10;5.82;;;35.80;49.40;;;;;;5098492;28;20040;-77
2022/07/22 11:49:52;;;;;;;10.32;6.05;;;35.90;49.10;;;;;;5099475;28;20044;-77
2022/07/22 11:52:19;;;;;;;9.57;6.18;;;35.70;49.30;;;;;;5102867;28;20060;-77
2022/07/22 11:54:47;;;;;;;19.42;8.70;;;35.80;49.30;;;;;;5101369;28;20077;-77
2022/07/22 11:57:15;;;;;;;15.60;6.03;;;35.90;49.00;;;;;;5101702;28;20048;-76
2022/07/22 11:59:43;;;;;;;31.55;7.95;;;35.90;48.30;;;;;;5102698;28;20107;-78
2022/07/22 12:02:13;;;;;;;15.80;6.53;;;35.90;48.20;;;;;;5100745;28;20104;-77
2022/07/22 12:04:41;;;;;;;9.38;5.53;;;35.90;47.90;;;;;;5101530;28;20075;-79
2022/07/22 12:07:12;;;;;;;17.30;6.78;;;35.70;47.00;;;;;;5103145;28;20272;-78
2022/07/22 12:09:41;;;;;;;7.68;5.10;;;35.70;47.40;;;;;;5096619;28;20043;-78
2022/07/22 12:12:08;;;;;;;13.85;5.57;;;35.50;47.10;;;;;;5095411;28;20051;-79
2022/07/22 12:14:36;;;;;;;10.70;5.53;;;35.50;47.10;;;;;;5097731;28;20564;-77
2022/07/22 12:17:06;;;;;;;11.50;5.20;;;35.50;47.70;;;;;;5097069;28;20482;-77
2022/07/22 12:19:35;;;;;;;10.45;5.55;;;35.30;47.70;;;;;;5096613;28;20402;-77
2022/07/22 12:22:04;;;;;;;10.93;5.90;;;35.30;47.90;;;;;;5097882;28;20415;-78
2022/07/22 12:24:35;;;;;;;10.48;5.97;;;35.10;47.90;;;;;;5098200;28;20043;-76
2022/07/22 12:27:03;;;;;;;10.18;5.30;;;35.00;47.80;;;;;;5097670;28;20033;-78
2022/07/22 12:29:42;;;;;;;12.82;5.57;;;35.10;47.50;;;;;;5098254;28;20075;-77
2022/07/22 12:32:11;;;;;;;12.90;6.03;;;35.30;47.30;;;;;;5097823;28;20040;-78
2022/07/22 12:34:40;;;;;;;8.13;5.20;;;35.30;47.00;;;;;;5100057;28;20079;-77
2022/07/22 12:37:21;;;;;;;9.82;5.70;;;35.30;46.80;;;;;;5098901;28;20475;-77
2022/07/22 12:39:58;;;;;;;9.02;5.72;;;35.30;46.40;;;;;;5107110;28;20047;-76
2022/07/22 12:42:27;;;;;;;10.88;5.63;;;35.30;46.00;;;;;;5109446;28;20044;-77
2022/07/22 12:45:00;;;;;;;11.10;5.20;;;35.30;45.80;;;;;;5097238;28;20464;-77
2022/07/22 12:47:45;;;;;;;10.35;5.30;;;35.20;45.80;;;;;;5097828;28;20456;-78
2022/07/22 12:50:21;;;;;;;8.93;5.82;;;35.00;46.20;;;;;;5097799;28;20047;-77
2022/07/22 12:52:49;;;;;;;10.95;5.55;;;34.90;46.30;;;;;;5097500;28;20097;-78
2022/07/22 12:55:18;;;;;;;8.43;5.07;;;35.10;47.00;;;;;;5098448;28;20556;-77